createdAt,value
2023-05-12T00:01:52.751Z,1016.61
2023-05-12T00:04:19.545Z,1016.58
2023-05-12T00:06:46.304Z,1016.57
2023-05-12T00:09:13.116Z,1016.66
2023-05-12T00:11:40.027Z,1016.69
2023-05-12T00:14:06.946Z,1016.69
2023-05-12T00:16:33.825Z,1016.65
2023-05-12T00:19:02.093Z,1016.58
2023-05-12T00:21:28.850Z,1016.58
2023-05-12T00:23:55.609Z,1016.51
2023-05-12T00:26:22.430Z,1016.54
2023-05-12T00:28:49.216Z,1016.53
2023-05-12T00:31:16.184Z,1016.51
2023-05-12T00:33:42.963Z,1016.51
2023-05-12T00:36:11.133Z,1016.53
2023-05-12T00:38:37.868Z,1016.42
2023-05-12T00:41:04.719Z,1016.41
2023-05-12T00:43:31.528Z,1016.45
2023-05-12T00:45:58.547Z,1016.50
2023-05-12T00:48:25.682Z,1016.44
2023-05-12T00:50:52.596Z,1016.42
2023-05-12T00:53:20.782Z,1016.41
2023-05-12T00:55:47.556Z,1016.40
2023-05-12T00:58:14.604Z,1016.34
2023-05-12T01:00:41.400Z,1016.32
2023-05-12T01:03:08.660Z,1016.34
2023-05-12T01:05:39.417Z,1016.41
2023-05-12T01:08:06.327Z,1016.34
2023-05-12T01:10:34.744Z,1016.44
2023-05-12T01:13:01.603Z,1016.43
2023-05-12T01:15:31.974Z,1016.35
2023-05-12T01:18:02.022Z,1016.33
2023-05-12T01:20:30.417Z,1016.41
2023-05-12T01:22:58.611Z,1016.30
2023-05-12T01:25:28.760Z,1016.38
2023-05-12T01:27:57.417Z,1016.33
2023-05-12T01:30:26.268Z,1016.32
2023-05-12T01:32:53.265Z,1016.34
2023-05-12T01:35:20.192Z,1016.28
2023-05-12T01:37:46.941Z,1016.36
2023-05-12T01:40:14.047Z,1016.26
2023-05-12T01:42:42.412Z,1016.27
2023-05-12T01:45:11.306Z,1016.30
2023-05-12T01:47:38.118Z,1016.33
2023-05-12T01:50:05.795Z,1016.36
2023-05-12T01:52:32.702Z,1016.33
2023-05-12T01:54:59.449Z,1016.36
2023-05-12T01:57:26.200Z,1016.34
2023-05-12T01:59:52.973Z,1016.29
2023-05-12T02:02:21.247Z,1016.30
2023-05-12T02:04:48.037Z,1016.28
2023-05-12T02:07:14.872Z,1016.21
2023-05-12T02:09:41.614Z,1016.33
2023-05-12T02:12:08.639Z,1016.29
2023-05-12T02:14:35.526Z,1016.20
2023-05-12T02:17:02.280Z,1016.26
2023-05-12T02:19:30.397Z,1016.17
2023-05-12T02:21:57.133Z,1016.22
2023-05-12T02:24:23.831Z,1016.17
2023-05-12T02:26:50.593Z,1016.19
2023-05-12T02:29:17.322Z,1016.26
2023-05-12T02:31:44.208Z,1016.30
2023-05-12T02:34:11.016Z,1016.31
2023-05-12T02:36:39.148Z,1016.18
2023-05-12T02:39:05.969Z,1016.28
2023-05-12T02:41:32.794Z,1016.27
2023-05-12T02:43:59.665Z,1016.21
2023-05-12T02:46:26.406Z,1016.16
2023-05-12T02:48:53.201Z,1016.10
2023-05-12T02:51:19.954Z,1016.15
2023-05-12T02:53:48.162Z,1016.12
2023-05-12T02:56:15.022Z,1016.08
2023-05-12T02:58:42.138Z,1016.14
2023-05-12T03:01:11.167Z,1016.20
2023-05-12T03:03:38.547Z,1016.17
2023-05-12T03:06:06.334Z,1016.16
2023-05-12T03:08:33.573Z,1016.20
2023-05-12T03:11:01.957Z,1016.22
2023-05-12T03:13:28.712Z,1016.17
2023-05-12T03:15:55.436Z,1016.18
2023-05-12T03:18:22.387Z,1016.13
2023-05-12T03:20:49.365Z,1016.19
2023-05-12T03:23:16.205Z,1016.12
2023-05-12T03:25:43.002Z,1016.12
2023-05-12T03:28:11.162Z,1016.16
2023-05-12T03:30:37.907Z,1016.21
2023-05-12T03:33:04.727Z,1016.16
2023-05-12T03:35:31.560Z,1016.21
2023-05-12T03:37:58.262Z,1016.22
2023-05-12T03:40:25.032Z,1016.16
2023-05-12T03:42:51.864Z,1016.19
2023-05-12T03:45:20.247Z,1016.19
2023-05-12T03:47:47.067Z,1016.18
2023-05-12T03:50:13.832Z,1016.17
2023-05-12T03:52:40.649Z,1016.18
2023-05-12T03:55:08.286Z,1016.21
2023-05-12T03:57:35.067Z,1016.13
2023-05-12T04:00:02.230Z,1016.21
2023-05-12T04:02:30.871Z,1016.22
2023-05-12T04:04:57.709Z,1016.20
2023-05-12T04:07:24.483Z,1016.25
2023-05-12T04:09:51.340Z,1016.29
2023-05-12T04:12:18.137Z,1016.23
2023-05-12T04:14:44.874Z,1016.25
2023-05-12T04:17:11.607Z,1016.16
2023-05-12T04:19:39.760Z,1016.15
2023-05-12T04:22:06.538Z,1016.18
2023-05-12T04:24:33.256Z,1016.14
2023-05-12T04:27:00.049Z,1016.22
2023-05-12T04:29:26.785Z,1016.27
2023-05-12T04:31:54.937Z,1016.26
2023-05-12T04:34:21.832Z,1016.28
2023-05-12T04:36:50.465Z,1016.30
2023-05-12T04:39:18.141Z,1016.30
2023-05-12T04:41:45.134Z,1016.34
2023-05-12T04:44:32.244Z,1016.35
2023-05-12T04:46:58.968Z,1016.47
2023-05-12T04:49:25.673Z,1016.37
2023-05-12T04:51:53.788Z,1016.33
2023-05-12T04:54:21.476Z,1016.37
2023-05-12T04:56:48.294Z,1016.39
2023-05-12T04:59:15.081Z,1016.33
2023-05-12T05:01:41.952Z,1016.33
2023-05-12T05:04:09.153Z,1016.29
2023-05-12T05:06:35.868Z,1016.30
2023-05-12T05:09:04.191Z,1016.37
2023-05-12T05:11:30.976Z,1016.27
2023-05-12T05:13:57.772Z,1016.27
2023-05-12T05:16:24.800Z,1016.24
2023-05-12T05:18:51.927Z,1016.29
2023-05-12T05:21:19.049Z,1016.30
2023-05-12T05:23:46.095Z,1016.33
2023-05-12T05:26:14.306Z,1016.37
2023-05-12T05:28:41.091Z,1016.36
2023-05-12T05:31:08.125Z,1016.32
2023-05-12T05:33:34.940Z,1016.35
2023-05-12T05:36:01.817Z,1016.37
2023-05-12T05:38:28.655Z,1016.34
2023-05-12T05:40:55.469Z,1016.33
2023-05-12T05:43:24.185Z,1016.40
2023-05-12T05:45:51.616Z,1016.40
2023-05-12T05:48:18.852Z,1016.46
2023-05-12T05:50:45.600Z,1016.43
2023-05-12T05:53:12.407Z,1016.50
2023-05-12T05:55:39.207Z,1016.49
2023-05-12T05:58:06.024Z,1016.42
2023-05-12T06:00:34.419Z,1016.53
2023-05-12T06:03:01.337Z,1016.51
2023-05-12T06:05:28.176Z,1016.50
2023-05-12T06:07:55.144Z,1016.59
2023-05-12T06:10:22.468Z,1016.58
2023-05-12T06:12:49.517Z,1016.57
2023-05-12T06:15:16.674Z,1016.62
2023-05-12T06:17:47.816Z,1016.63
2023-05-12T06:20:14.904Z,1016.67
2023-05-12T06:22:41.749Z,1016.73
2023-05-12T06:25:08.890Z,1016.71
2023-05-12T06:27:35.737Z,1016.69
2023-05-12T06:30:02.550Z,1016.76
2023-05-12T06:32:29.450Z,1016.65
2023-05-12T06:34:57.970Z,1016.69
2023-05-12T06:37:24.803Z,1016.67
2023-05-12T06:39:51.790Z,1016.65
2023-05-12T06:42:18.616Z,1016.63
2023-05-12T06:44:45.638Z,1016.50
2023-05-12T06:47:12.641Z,1016.45
2023-05-12T06:49:39.580Z,1016.56
2023-05-12T06:52:07.834Z,1016.42
2023-05-12T06:54:34.706Z,1016.33
2023-05-12T06:57:01.455Z,1016.34
2023-05-12T06:59:28.435Z,1016.16
2023-05-12T07:01:55.269Z,1016.17
2023-05-12T07:04:22.240Z,1016.08
2023-05-12T07:06:49.367Z,1016.09
2023-05-12T07:09:17.548Z,1015.92
2023-05-12T07:11:44.450Z,1015.93
2023-05-12T07:14:11.400Z,1015.94
2023-05-12T07:16:40.016Z,1015.90
2023-05-12T07:19:06.907Z,1015.89
2023-05-12T07:21:33.883Z,1015.82
2023-05-12T07:24:01.120Z,1015.70
2023-05-12T07:26:29.367Z,1015.76
2023-05-12T07:28:56.200Z,1015.74
2023-05-12T07:31:23.016Z,1015.73
2023-05-12T07:33:49.789Z,1015.75
2023-05-12T07:36:16.527Z,1015.72
2023-05-12T07:38:46.136Z,1015.73
2023-05-12T07:41:14.163Z,1015.75
2023-05-12T07:43:42.242Z,1015.74
2023-05-12T07:46:09.305Z,1015.70
2023-05-12T07:48:36.444Z,1015.67
2023-05-12T07:51:03.173Z,1015.74
2023-05-12T07:53:29.911Z,1015.70
2023-05-12T07:55:58.058Z,1015.66
2023-05-12T07:58:25.346Z,1015.77
2023-05-12T08:00:56.286Z,1015.77
2023-05-12T08:03:23.770Z,1015.68
2023-05-12T08:05:50.863Z,1015.78
2023-05-12T08:08:17.784Z,1015.76
2023-05-12T08:10:44.865Z,1015.73
2023-05-12T08:13:11.886Z,1015.69
2023-05-12T08:15:39.070Z,1015.70
2023-05-12T08:18:08.109Z,1015.60
2023-05-12T08:20:34.913Z,1015.70
2023-05-12T08:23:01.948Z,1015.65
2023-05-12T08:25:28.713Z,1015.60
2023-05-12T08:27:55.631Z,1015.43
2023-05-12T08:30:22.382Z,1015.37
2023-05-12T08:32:49.457Z,1015.37
2023-05-12T08:35:18.147Z,1015.31
2023-05-12T08:37:45.225Z,1015.17
2023-05-12T08:40:15.878Z,1015.19
2023-05-12T08:42:44.171Z,1015.07
2023-05-12T08:45:11.757Z,1015.07
2023-05-12T08:47:38.938Z,1015.10
2023-05-12T08:50:07.713Z,1015.02
2023-05-12T08:52:36.533Z,1014.97
2023-05-12T08:55:04.525Z,1014.91
2023-05-12T08:57:31.518Z,1014.87
2023-05-12T08:59:58.664Z,1014.85
2023-05-12T09:02:25.737Z,1014.86
2023-05-12T09:04:53.183Z,1014.96
2023-05-12T09:07:21.475Z,1014.91
2023-05-12T09:09:54.835Z,1014.88
2023-05-12T09:12:21.816Z,1014.97
2023-05-12T09:14:56.493Z,1014.99
2023-05-12T09:17:23.339Z,1014.98
2023-05-12T09:19:52.313Z,1015.12
2023-05-12T09:22:27.506Z,1015.04
2023-05-12T09:24:59.381Z,1014.97
2023-05-12T09:27:28.723Z,1015.03
2023-05-12T09:29:59.546Z,1014.97
2023-05-12T09:32:30.793Z,1015.03
2023-05-12T09:35:01.469Z,1015.06
2023-05-12T09:37:31.122Z,1015.05
2023-05-12T09:40:03.153Z,1015.09
2023-05-12T09:42:34.311Z,1015.06
2023-05-12T09:45:02.496Z,1015.32
2023-05-12T09:47:34.780Z,1015.05
2023-05-12T09:50:02.079Z,1014.96
2023-05-12T09:52:29.005Z,1014.73
2023-05-12T09:54:55.745Z,1014.73
2023-05-12T09:57:26.051Z,1014.82
2023-05-12T09:59:53.490Z,1014.83
2023-05-12T10:02:20.604Z,1014.83
2023-05-12T10:04:50.150Z,1014.80
2023-05-12T10:07:18.430Z,1014.92
2023-05-12T10:09:45.671Z,1014.85
2023-05-12T10:12:12.890Z,1014.84
2023-05-12T10:14:41.289Z,1014.71
2023-05-12T10:17:09.621Z,1014.63
2023-05-12T10:19:36.903Z,1014.48
2023-05-12T10:22:09.923Z,1014.28
2023-05-12T10:24:37.867Z,1014.10
2023-05-12T10:27:05.484Z,1013.91
2023-05-12T10:29:33.178Z,1013.91
2023-05-12T10:32:01.444Z,1013.86
2023-05-12T10:34:30.801Z,1013.90
2023-05-12T10:37:00.718Z,1013.84
2023-05-12T10:39:30.922Z,1013.82
2023-05-12T10:42:01.696Z,1013.87
2023-05-12T10:44:28.701Z,1013.73
2023-05-12T10:46:59.107Z,1013.72
2023-05-12T10:49:39.954Z,1013.74
2023-05-12T10:52:07.051Z,1013.69
2023-05-12T10:54:39.980Z,1013.63
2023-05-12T10:57:14.961Z,1013.56
2023-05-12T10:59:51.969Z,1013.57
2023-05-12T11:02:23.762Z,1013.42
2023-05-12T11:04:55.880Z,1013.40
2023-05-12T11:07:24.989Z,1013.44
2023-05-12T11:09:57.461Z,1013.44
2023-05-12T11:12:27.358Z,1013.57
2023-05-12T11:14:54.370Z,1013.56
2023-05-12T11:17:21.319Z,1013.66
2023-05-12T11:19:49.548Z,1013.64
2023-05-12T11:22:20.602Z,1013.60
2023-05-12T11:24:48.546Z,1013.66
2023-05-12T11:27:18.178Z,1013.70
2023-05-12T11:29:56.271Z,1013.61
2023-05-12T11:32:23.063Z,1013.66
2023-05-12T11:34:50.402Z,1013.62
2023-05-12T11:37:18.642Z,1013.53
2023-05-12T11:39:45.445Z,1013.45
2023-05-12T11:42:13.984Z,1013.47
2023-05-12T11:44:47.514Z,1013.39
2023-05-12T11:47:15.643Z,1013.40
2023-05-12T11:49:48.635Z,1013.39
2023-05-12T11:52:15.843Z,1013.29
2023-05-12T11:54:49.682Z,1013.22
2023-05-12T11:57:25.747Z,1013.13
2023-05-12T11:59:57.257Z,1013.11
2023-05-12T12:02:24.222Z,1013.13
2023-05-12T12:04:51.045Z,1013.19
2023-05-12T12:07:28.836Z,1013.18
2023-05-12T12:09:57.311Z,1013.23
2023-05-12T12:12:24.201Z,1013.17
2023-05-12T12:14:51.011Z,1013.25
2023-05-12T12:17:17.839Z,1013.36
2023-05-12T12:19:44.796Z,1013.37
2023-05-12T12:22:11.685Z,1013.30
2023-05-12T12:24:38.395Z,1013.24
2023-05-12T12:27:06.670Z,1013.17
2023-05-12T12:29:33.766Z,1013.07
2023-05-12T12:32:00.526Z,1012.88
2023-05-12T12:34:27.281Z,1012.90
2023-05-12T12:36:54.075Z,1012.89
2023-05-12T12:39:23.994Z,1012.77
2023-05-12T12:41:53.769Z,1012.77
2023-05-12T12:44:23.074Z,1012.80
2023-05-12T12:46:50.300Z,1012.91
2023-05-12T12:49:17.182Z,1012.93
2023-05-12T12:51:46.791Z,1013.08
2023-05-12T12:54:14.149Z,1013.07
2023-05-12T12:56:40.932Z,1013.14
2023-05-12T12:59:07.667Z,1013.23
2023-05-12T13:01:36.035Z,1013.23
2023-05-12T13:04:02.870Z,1013.32
2023-05-12T13:06:29.587Z,1013.32
2023-05-12T13:08:56.710Z,1013.27
2023-05-12T13:11:23.633Z,1013.26
2023-05-12T13:13:50.537Z,1013.20
2023-05-12T13:16:17.608Z,1013.16
2023-05-12T13:18:45.922Z,1013.15
2023-05-12T13:21:12.941Z,1013.17
2023-05-12T13:23:39.775Z,1013.11
2023-05-12T13:26:06.518Z,1013.13
2023-05-12T13:28:33.629Z,1013.03
2023-05-12T13:31:03.015Z,1013.09
2023-05-12T13:33:30.171Z,1013.13
2023-05-12T13:35:58.585Z,1013.20
2023-05-12T13:38:25.446Z,1013.23
2023-05-12T13:40:52.646Z,1013.33
2023-05-12T13:43:19.498Z,1013.34
2023-05-12T13:45:46.599Z,1013.45
2023-05-12T13:48:13.498Z,1013.48
2023-05-12T13:50:40.262Z,1013.56
2023-05-12T13:53:08.413Z,1013.55
2023-05-12T13:55:35.224Z,1013.58
2023-05-12T13:58:01.978Z,1013.57
2023-05-12T14:00:28.683Z,1013.60
2023-05-12T14:02:55.535Z,1013.68
2023-05-12T14:05:22.970Z,1013.76
2023-05-12T14:07:50.242Z,1013.73
2023-05-12T14:10:18.670Z,1013.84
2023-05-12T14:12:45.609Z,1013.75
2023-05-12T14:17:46.500Z,1013.85
2023-05-12T14:20:13.417Z,1013.88
2023-05-12T14:22:40.356Z,1013.98
2023-05-12T14:25:10.136Z,1014.03
2023-05-12T14:27:38.274Z,1014.05
2023-05-12T14:30:06.375Z,1014.08
2023-05-12T14:32:33.306Z,1014.11
2023-05-12T14:35:00.168Z,1014.11
2023-05-12T14:37:26.953Z,1014.20
2023-05-12T14:39:56.359Z,1014.23
2023-05-12T14:42:23.176Z,1014.28
2023-05-12T14:44:51.316Z,1014.38
2023-05-12T14:47:18.114Z,1014.41
2023-05-12T14:49:45.781Z,1014.63
2023-05-12T14:52:12.755Z,1014.70
2023-05-12T14:54:39.539Z,1014.63
2023-05-12T14:57:06.570Z,1014.68
2023-05-12T14:59:33.359Z,1014.73
2023-05-12T15:02:01.620Z,1014.76
2023-05-12T15:04:28.403Z,1014.84
2023-05-12T15:06:55.121Z,1014.92
2023-05-12T15:09:21.960Z,1014.85
2023-05-12T15:11:48.669Z,1015.02
2023-05-12T15:14:15.430Z,1015.31
2023-05-12T15:16:42.232Z,1015.52
2023-05-12T15:19:10.568Z,1015.50
2023-05-12T15:21:37.356Z,1015.37
2023-05-12T15:24:04.470Z,1015.43
2023-05-12T15:26:33.507Z,1015.38
2023-05-12T15:29:00.916Z,1015.37
2023-05-12T15:31:29.133Z,1015.51
2023-05-12T15:33:56.349Z,1015.56
2023-05-12T15:36:24.684Z,1015.69
2023-05-12T15:38:51.445Z,1015.66
2023-05-12T15:41:18.226Z,1015.80
2023-05-12T15:43:45.028Z,1015.87
2023-05-12T15:46:14.206Z,1015.76
2023-05-12T15:48:41.458Z,1015.81
2023-05-12T15:51:08.167Z,1015.73
2023-05-12T15:53:36.282Z,1015.79
2023-05-12T15:56:04.430Z,1015.84
2023-05-12T15:58:31.835Z,1015.78
2023-05-12T16:00:59.141Z,1015.80
2023-05-12T16:03:26.330Z,1015.83
2023-05-12T16:05:53.268Z,1015.88
2023-05-12T16:08:20.150Z,1016.14
2023-05-12T16:10:55.272Z,1016.07
2023-05-12T16:13:22.054Z,1016.16
2023-05-12T16:15:49.658Z,1016.21
2023-05-12T16:18:16.578Z,1016.20
2023-05-12T16:20:43.528Z,1016.22
2023-05-12T16:23:10.443Z,1016.25
2023-05-12T16:25:37.169Z,1016.26
2023-05-12T16:28:05.384Z,1016.25
2023-05-12T16:30:32.136Z,1016.16
2023-05-12T16:32:59.427Z,1016.09
2023-05-12T16:35:26.623Z,1016.17
2023-05-12T16:37:53.457Z,1016.20
2023-05-12T16:40:20.312Z,1016.26
2023-05-12T16:42:47.064Z,1016.30
2023-05-12T16:45:15.349Z,1016.43
2023-05-12T16:47:42.175Z,1016.45
2023-05-12T16:50:13.773Z,1016.45
2023-05-12T16:52:43.093Z,1016.41
2023-05-12T16:55:10.354Z,1016.45
2023-05-12T16:57:37.098Z,1016.51
2023-05-12T17:00:04.316Z,1016.45
2023-05-12T17:02:32.917Z,1016.53
2023-05-12T17:04:59.719Z,1016.57
2023-05-12T17:07:26.596Z,1016.61
2023-05-12T17:09:53.434Z,1016.60
2023-05-12T17:12:22.089Z,1016.68
2023-05-12T17:14:59.291Z,1016.72
2023-05-12T17:17:35.326Z,1016.61
2023-05-12T17:20:02.614Z,1016.59
2023-05-12T17:22:29.531Z,1016.65
2023-05-12T17:24:56.288Z,1016.71
2023-05-12T17:27:23.151Z,1016.74
2023-05-12T17:29:50.215Z,1016.77
2023-05-12T17:32:16.925Z,1016.90
2023-05-12T17:34:45.134Z,1016.95
2023-05-12T17:37:12.968Z,1016.86
2023-05-12T17:39:39.705Z,1017.01
2023-05-12T17:42:07.307Z,1016.96
2023-05-12T17:44:34.099Z,1017.08
2023-05-12T17:47:01.031Z,1017.12
2023-05-12T17:49:27.842Z,1017.16
2023-05-12T17:51:56.004Z,1017.17
2023-05-12T17:54:24.420Z,1017.28
2023-05-12T17:56:51.240Z,1017.27
2023-05-12T17:59:18.025Z,1017.25
2023-05-12T18:01:44.753Z,1017.27
2023-05-12T18:04:11.556Z,1017.33
2023-05-12T18:06:38.331Z,1017.28
2023-05-12T18:09:06.562Z,1017.38
2023-05-12T18:11:33.345Z,1017.45
2023-05-12T18:14:00.255Z,1017.51
2023-05-12T18:16:29.516Z,1017.61
2023-05-12T18:18:56.758Z,1017.71
2023-05-12T18:21:23.838Z,1017.62
2023-05-12T18:23:50.644Z,1017.61
2023-05-12T18:26:18.826Z,1017.62
2023-05-12T18:28:45.628Z,1017.76
2023-05-12T18:31:16.390Z,1017.82
2023-05-12T18:33:47.112Z,1018.00
2023-05-12T18:36:17.182Z,1017.96
2023-05-12T18:38:48.805Z,1017.99
2023-05-12T18:41:28.705Z,1018.20
2023-05-12T18:44:14.956Z,1018.19
2023-05-12T18:46:44.004Z,1018.25
2023-05-12T18:49:19.953Z,1018.36
2023-05-12T18:51:54.707Z,1018.41
2023-05-12T18:54:27.115Z,1018.50
2023-05-12T18:57:09.282Z,1018.60
2023-05-12T18:59:36.408Z,1018.66
2023-05-12T19:02:11.321Z,1018.66
2023-05-12T19:04:43.297Z,1018.68
2023-05-12T19:07:12.310Z,1018.74
2023-05-12T19:09:39.304Z,1018.70
2023-05-12T19:12:08.695Z,1018.76
2023-05-12T19:14:35.454Z,1018.69
2023-05-12T19:17:02.165Z,1018.71
2023-05-12T19:19:28.990Z,1018.80
2023-05-12T19:21:55.839Z,1018.75
2023-05-12T19:24:25.396Z,1018.81
2023-05-12T19:26:52.399Z,1018.89
2023-05-12T19:29:20.966Z,1018.87
2023-05-12T19:31:47.901Z,1018.83
2023-05-12T19:34:17.897Z,1018.99
2023-05-12T19:36:46.468Z,1018.98
2023-05-12T19:39:19.856Z,1019.06
2023-05-12T19:41:52.913Z,1019.14
2023-05-12T19:44:35.417Z,1019.09
2023-05-12T19:47:03.210Z,1019.20
2023-05-12T19:49:38.343Z,1019.12
2023-05-12T19:52:08.616Z,1019.18
2023-05-12T19:54:46.227Z,1019.21
2023-05-12T19:57:25.546Z,1019.15
2023-05-12T19:59:56.237Z,1019.23
2023-05-12T20:02:23.184Z,1019.30
2023-05-12T20:04:50.085Z,1019.30
2023-05-12T20:07:16.812Z,1019.16
2023-05-12T20:09:43.600Z,1019.21
2023-05-12T20:12:10.477Z,1019.22
2023-05-12T20:14:37.224Z,1019.24
2023-05-12T20:17:05.724Z,1019.27
2023-05-12T20:19:32.938Z,1019.27
2023-05-12T20:21:59.813Z,1019.19
2023-05-12T20:24:26.616Z,1019.15
2023-05-12T20:26:53.913Z,1019.26
2023-05-12T20:29:20.883Z,1019.29
2023-05-12T20:31:47.852Z,1019.25
2023-05-12T20:34:16.495Z,1019.26
2023-05-12T20:36:43.539Z,1019.40
2023-05-12T20:39:10.686Z,1019.39
2023-05-12T20:41:40.528Z,1019.48
2023-05-12T20:44:07.386Z,1019.52
2023-05-12T20:46:36.435Z,1019.68
2023-05-12T20:49:05.312Z,1019.58
2023-05-12T20:51:33.541Z,1019.69
2023-05-12T20:54:00.334Z,1019.70
2023-05-12T20:56:27.200Z,1019.66
2023-05-12T20:58:54.111Z,1019.65
2023-05-12T21:01:20.974Z,1019.66
2023-05-12T21:03:48.572Z,1019.67
2023-05-12T21:06:15.411Z,1019.70
2023-05-12T21:08:43.621Z,1019.64
2023-05-12T21:11:14.754Z,1019.66
2023-05-12T21:13:41.682Z,1019.62
2023-05-12T21:16:08.648Z,1019.52
2023-05-12T21:18:35.611Z,1019.66
2023-05-12T21:21:02.366Z,1019.63
2023-05-12T21:23:29.197Z,1019.67
2023-05-12T21:25:57.377Z,1019.68
2023-05-12T21:28:24.113Z,1019.61
2023-05-12T21:30:51.059Z,1019.70
2023-05-12T21:33:17.795Z,1019.66
2023-05-12T21:35:44.543Z,1019.71
2023-05-12T21:38:11.331Z,1019.74
2023-05-12T21:40:38.161Z,1019.73
2023-05-12T21:43:06.275Z,1019.73
2023-05-12T21:45:33.029Z,1019.64
2023-05-12T21:47:59.792Z,1019.81
2023-05-12T21:50:26.663Z,1019.76
2023-05-12T21:52:53.477Z,1019.93
2023-05-12T21:55:20.501Z,1020.01
2023-05-12T21:57:47.249Z,1019.98
2023-05-12T22:00:18.295Z,1020.06
2023-05-12T22:02:45.080Z,1020.09
2023-05-12T22:05:11.916Z,1020.12
2023-05-12T22:07:38.759Z,1020.16
2023-05-12T22:10:06.437Z,1020.12
2023-05-12T22:12:33.265Z,1020.13
2023-05-12T22:14:59.997Z,1020.11
2023-05-12T22:17:28.260Z,1020.14
2023-05-12T22:19:55.220Z,1020.11
2023-05-12T22:22:22.106Z,1020.22
2023-05-12T22:24:48.893Z,1020.28
2023-05-12T22:27:15.637Z,1020.28
2023-05-12T22:29:42.374Z,1020.33
2023-05-12T22:32:09.184Z,1020.31
2023-05-12T22:34:37.274Z,1020.33
2023-05-12T22:37:04.144Z,1020.30
2023-05-12T22:39:30.912Z,1020.31
2023-05-12T22:41:57.696Z,1020.33
2023-05-12T22:44:24.476Z,1020.29
2023-05-12T22:46:51.320Z,1020.29
2023-05-12T22:49:18.162Z,1020.28
2023-05-12T22:51:46.331Z,1020.30
2023-05-12T22:54:13.154Z,1020.31
2023-05-12T22:56:39.880Z,1020.28
2023-05-12T22:59:06.668Z,1020.32
2023-05-12T23:01:33.499Z,1020.27
2023-05-12T23:04:00.336Z,1020.30
2023-05-12T23:06:27.155Z,1020.30
2023-05-12T23:08:55.458Z,1020.31
2023-05-12T23:11:22.253Z,1020.24
2023-05-12T23:13:49.027Z,1020.30
2023-05-12T23:16:15.915Z,1020.30
2023-05-12T23:18:42.765Z,1020.34
2023-05-12T23:21:09.580Z,1020.30
2023-05-12T23:23:36.296Z,1020.22
2023-05-12T23:26:04.445Z,1020.22
2023-05-12T23:28:31.184Z,1020.20
2023-05-12T23:30:59.796Z,1020.27
2023-05-12T23:33:26.803Z,1020.23
2023-05-12T23:35:53.871Z,1020.29
2023-05-12T23:38:20.668Z,1020.17
2023-05-12T23:40:47.611Z,1020.16
2023-05-12T23:43:15.803Z,1020.21
2023-05-12T23:45:42.680Z,1020.26
2023-05-12T23:48:09.438Z,1020.16
2023-05-12T23:50:36.253Z,1020.13
2023-05-12T23:53:03.020Z,1020.16
2023-05-12T23:55:29.864Z,1020.14
2023-05-12T23:57:57.071Z,1020.06
